Time;durP1;ratioP1;P1;durP2;ratioP2;P2;SDS_P1;SDS_P2;PMS_P1;PMS_P2;Temp;Humidity;BMP_temperature;BMP_pressure;BME280_temperature;BME280_humidity;BME280_pressure;Samples;Min_cycle;Max_cycle;Signal;HPM_P1;HPM_P2
2022/11/22 00:01:21;;;;;;;5.82;4.57;;;11.80;96.70;;;;;;5045424;28;20094;-69
2022/11/22 00:03:49;;;;;;;7.30;4.70;;;11.80;96.70;;;;;;5064456;28;20040;-69
2022/11/22 00:06:17;;;;;;;7.82;4.97;;;11.80;96.70;;;;;;5063377;28;20516;-69
2022/11/22 00:08:45;;;;;;;6.80;4.43;;;11.80;96.70;;;;;;5063834;28;20060;-69
2022/11/22 00:11:13;;;;;;;7.03;4.43;;;11.80;96.70;;;;;;5061415;28;20126;-69
2022/11/22 00:13:41;;;;;;;5.47;3.80;;;11.70;96.70;;;;;;5060594;28;20398;-69
2022/11/22 00:16:11;;;;;;;6.57;4.15;;;11.70;96.70;;;;;;5062590;28;20102;-69
2022/11/22 00:18:39;;;;;;;6.20;4.00;;;11.60;96.70;;;;;;5062095;28;20605;-69
2022/11/22 00:21:07;;;;;;;5.22;3.88;;;11.70;96.70;;;;;;5062974;28;20848;-69
2022/11/22 00:23:35;;;;;;;6.35;4.03;;;11.60;96.70;;;;;;5063523;28;20529;-69
2022/11/22 00:26:03;;;;;;;8.30;4.13;;;11.60;96.70;;;;;;5060030;28;20094;-69
2022/11/22 00:28:32;;;;;;;6.97;3.63;;;11.60;96.70;;;;;;5055466;28;20101;-69
2022/11/22 00:31:00;;;;;;;6.13;3.88;;;11.60;96.70;;;;;;5062418;28;20494;-69
2022/11/22 00:33:29;;;;;;;7.22;3.72;;;11.60;96.70;;;;;;5063970;28;20098;-69
2022/11/22 00:35:57;;;;;;;6.03;3.25;;;11.60;96.70;;;;;;5057930;28;20036;-69
2022/11/22 00:38:25;;;;;;;3.95;2.47;;;11.60;96.70;;;;;;5061771;28;20146;-69
2022/11/22 00:40:53;;;;;;;5.75;2.90;;;11.70;96.70;;;;;;5063747;28;20041;-69
2022/11/22 00:43:21;;;;;;;6.75;3.28;;;11.70;96.70;;;;;;5044989;28;20071;-69
2022/11/22 00:45:49;;;;;;;6.22;2.95;;;11.70;96.70;;;;;;5063137;28;20782;-69
2022/11/22 00:48:17;;;;;;;4.28;2.20;;;11.70;96.70;;;;;;5062102;28;20543;-70
2022/11/22 00:50:48;;;;;;;4.35;2.35;;;11.70;96.70;;;;;;5063018;28;20040;-70
2022/11/22 00:53:16;;;;;;;4.97;2.35;;;11.70;96.70;;;;;;5054078;28;20090;-70
2022/11/22 00:55:44;;;;;;;5.97;2.28;;;11.70;96.70;;;;;;5061460;28;20045;-69
2022/11/22 00:58:12;;;;;;;5.13;2.05;;;11.80;96.70;;;;;;5059198;28;20067;-70
2022/11/22 01:00:40;;;;;;;4.10;2.28;;;11.80;96.70;;;;;;5062813;28;20040;-70
2022/11/22 01:03:10;;;;;;;3.20;1.70;;;11.80;96.70;;;;;;5060904;28;20868;-70
2022/11/22 01:05:38;;;;;;;3.58;1.73;;;11.80;96.70;;;;;;5061460;28;20037;-70
2022/11/22 01:08:08;;;;;;;2.88;1.60;;;11.80;96.70;;;;;;5060363;28;20061;-70
2022/11/22 01:10:37;;;;;;;3.80;1.27;;;11.80;96.70;;;;;;5061288;28;20044;-70
2022/11/22 01:13:05;;;;;;;5.40;1.48;;;11.80;96.70;;;;;;5060602;28;20040;-70
2022/11/22 01:15:33;;;;;;;2.30;1.10;;;11.80;96.70;;;;;;5060633;28;20044;-70
2022/11/22 01:18:01;;;;;;;2.55;1.30;;;11.80;96.70;;;;;;5043566;28;20044;-70
2022/11/22 01:20:29;;;;;;;4.00;1.15;;;11.80;96.70;;;;;;5054106;28;20587;-70
2022/11/22 01:22:57;;;;;;;2.70;1.20;;;11.80;96.70;;;;;;5062002;28;20044;-70
2022/11/22 01:25:27;;;;;;;1.77;0.90;;;11.80;96.70;;;;;;5061294;28;20040;-70
2022/11/22 01:27:55;;;;;;;3.03;1.00;;;11.80;96.70;;;;;;5060259;28;20040;-70
2022/11/22 01:30:23;;;;;;;2.80;1.30;;;11.80;96.70;;;;;;5062329;28;20048;-70
2022/11/22 01:32:51;;;;;;;2.65;1.60;;;11.80;96.70;;;;;;5056429;28;20045;-70
2022/11/22 01:35:19;;;;;;;1.42;0.80;;;11.90;96.70;;;;;;5062488;28;20037;-70
2022/11/22 01:37:47;;;;;;;1.50;0.73;;;11.90;96.70;;;;;;5059849;28;20064;-70
2022/11/22 01:40:14;;;;;;;1.20;0.75;;;11.90;96.70;;;;;;5061577;28;20037;-70
2022/11/22 01:42:47;;;;;;;3.25;0.70;;;11.90;96.70;;;;;;5059888;28;20041;-70
2022/11/22 01:45:40;;;;;;;1.35;0.70;;;11.90;96.70;;;;;;5061726;28;20147;-69
2022/11/22 01:48:36;;;;;;;2.35;1.00;;;11.90;96.70;;;;;;5059892;28;20494;-70
2022/11/22 01:51:15;;;;;;;1.02;0.77;;;12.00;96.70;;;;;;5072360;28;20052;-72
2022/11/22 01:54:01;;;;;;;1.60;0.60;;;12.00;96.70;;;;;;5059574;28;20724;-70
2022/11/22 01:56:29;;;;;;;2.15;0.80;;;12.00;96.70;;;;;;5061867;28;20037;-70
2022/11/22 01:59:02;;;;;;;2.10;0.60;;;12.00;96.70;;;;;;5061414;28;20465;-70
2022/11/22 02:01:30;;;;;;;1.13;0.50;;;12.00;96.70;;;;;;5061000;28;20050;-70
2022/11/22 02:03:59;;;;;;;1.75;0.50;;;12.00;96.70;;;;;;5060601;28;20040;-70
2022/11/22 02:06:35;;;;;;;1.05;0.60;;;12.10;96.70;;;;;;5059585;28;20656;-70
2022/11/22 02:09:09;;;;;;;2.45;0.55;;;12.10;96.70;;;;;;5060138;28;20052;-70
2022/11/22 02:11:41;;;;;;;1.95;0.63;;;12.10;96.70;;;;;;5055491;28;20060;-70
2022/11/22 02:14:11;;;;;;;1.30;0.40;;;12.10;96.70;;;;;;5060726;28;20604;-70
2022/11/22 02:16:41;;;;;;;0.90;0.50;;;12.10;96.70;;;;;;5059468;28;20041;-70
2022/11/22 02:19:13;;;;;;;1.88;0.70;;;12.10;96.70;;;;;;5060691;28;20127;-70
2022/11/22 02:21:43;;;;;;;3.03;0.70;;;12.10;96.70;;;;;;5061254;28;21315;-70
2022/11/22 02:24:18;;;;;;;2.13;0.68;;;12.10;96.70;;;;;;5059887;28;20041;-70
2022/11/22 02:26:47;;;;;;;1.23;0.60;;;12.10;96.70;;;;;;5056786;28;20049;-71
2022/11/22 02:29:15;;;;;;;1.05;0.50;;;12.10;96.70;;;;;;5059388;28;20032;-70
2022/11/22 02:31:44;;;;;;;1.95;0.60;;;12.20;96.70;;;;;;5061711;28;20040;-70
2022/11/22 02:34:13;;;;;;;1.13;0.55;;;12.10;96.70;;;;;;5051547;28;20040;-70
2022/11/22 02:36:44;;;;;;;2.30;0.95;;;12.20;96.70;;;;;;5060724;28;20461;-70
2022/11/22 02:39:16;;;;;;;1.05;0.55;;;12.20;96.70;;;;;;5060054;28;20052;-70
2022/11/22 02:41:44;;;;;;;1.50;0.60;;;12.20;96.70;;;;;;5062255;28;20044;-70
2022/11/22 02:44:14;;;;;;;1.63;0.80;;;12.20;96.70;;;;;;5059016;28;20056;-70
2022/11/22 02:46:50;;;;;;;1.40;0.70;;;12.20;96.70;;;;;;5061504;28;20043;-70
2022/11/22 02:49:19;;;;;;;3.22;0.70;;;12.20;96.70;;;;;;5059604;28;20518;-70
2022/11/22 02:51:47;;;;;;;1.05;0.50;;;12.20;96.70;;;;;;5061965;28;20561;-70
2022/11/22 02:54:15;;;;;;;3.00;0.90;;;12.20;96.70;;;;;;5041808;28;20698;-70
2022/11/22 02:56:43;;;;;;;1.67;0.55;;;12.20;96.70;;;;;;5061437;28;20044;-70
2022/11/22 02:59:11;;;;;;;1.35;0.73;;;12.20;96.70;;;;;;5057345;28;20086;-70
2022/11/22 03:01:41;;;;;;;2.95;0.80;;;12.20;96.70;;;;;;5061222;28;20060;-70
2022/11/22 03:04:08;;;;;;;3.45;0.80;;;12.20;96.70;;;;;;5060653;28;20575;-71
2022/11/22 03:06:36;;;;;;;3.63;0.73;;;12.20;96.70;;;;;;5060349;28;20040;-70
2022/11/22 03:09:04;;;;;;;1.58;0.90;;;12.20;96.70;;;;;;5059058;28;20049;-70
2022/11/22 03:11:31;;;;;;;3.67;0.88;;;12.10;96.70;;;;;;5060058;28;20564;-70
2022/11/22 03:13:59;;;;;;;2.63;0.80;;;12.10;96.70;;;;;;5060780;28;20052;-70
2022/11/22 03:16:29;;;;;;;2.25;0.70;;;12.10;96.70;;;;;;5061682;28;20039;-70
2022/11/22 03:18:58;;;;;;;2.65;1.00;;;12.10;96.70;;;;;;5060503;28;20490;-70
2022/11/22 03:21:26;;;;;;;1.88;0.70;;;12.10;96.70;;;;;;5061828;28;20041;-70
2022/11/22 03:23:54;;;;;;;3.13;0.98;;;12.00;96.70;;;;;;5055964;28;20044;-70
2022/11/22 03:26:22;;;;;;;4.53;0.82;;;12.00;96.70;;;;;;5046803;28;20665;-71
2022/11/22 03:28:50;;;;;;;2.65;0.80;;;12.00;96.70;;;;;;5045582;28;20083;-70
2022/11/22 03:31:17;;;;;;;2.53;0.68;;;12.00;96.70;;;;;;5064664;28;20037;-71
2022/11/22 03:33:45;;;;;;;3.22;0.90;;;12.00;96.70;;;;;;5063069;28;20102;-70
2022/11/22 03:36:14;;;;;;;1.80;0.70;;;12.00;96.70;;;;;;5065271;28;20055;-70
2022/11/22 03:38:42;;;;;;;1.65;0.95;;;12.00;96.70;;;;;;5063901;28;20040;-70
2022/11/22 03:41:10;;;;;;;3.22;1.13;;;12.00;96.70;;;;;;5062930;28;21180;-70
2022/11/22 03:43:38;;;;;;;2.47;0.60;;;12.00;96.70;;;;;;5055200;28;20351;-70
2022/11/22 03:46:05;;;;;;;2.53;1.13;;;12.00;96.70;;;;;;5064062;28;20055;-70
2022/11/22 03:48:33;;;;;;;2.83;0.75;;;12.00;96.70;;;;;;5046448;28;20056;-70
2022/11/22 03:51:05;;;;;;;2.15;0.45;;;12.00;96.70;;;;;;5063269;28;20037;-70
2022/11/22 03:53:34;;;;;;;1.38;0.30;;;12.00;96.70;;;;;;5064019;28;20037;-70
2022/11/22 03:56:02;;;;;;;2.25;0.60;;;12.00;96.70;;;;;;5064105;28;20036;-70
2022/11/22 03:58:30;;;;;;;1.45;0.40;;;12.00;96.70;;;;;;5064275;28;20040;-70
2022/11/22 04:00:58;;;;;;;3.50;0.50;;;12.10;96.70;;;;;;5064081;28;20044;-70
2022/11/22 04:03:26;;;;;;;1.55;0.40;;;12.10;96.70;;;;;;5064333;28;20048;-70
2022/11/22 04:05:54;;;;;;;1.92;0.30;;;12.10;96.70;;;;;;5062126;28;20052;-71
2022/11/22 04:08:21;;;;;;;1.75;0.32;;;12.10;96.70;;;;;;5061995;28;20053;-70
2022/11/22 04:10:52;;;;;;;3.15;0.30;;;12.10;96.70;;;;;;5063120;28;20048;-70
2022/11/22 04:13:19;;;;;;;2.15;0.35;;;12.10;96.70;;;;;;5064357;28;20382;-70
2022/11/22 04:15:47;;;;;;;2.75;0.28;;;12.10;96.70;;;;;;5063135;28;20051;-70
2022/11/22 04:18:15;;;;;;;1.20;0.20;;;12.10;96.70;;;;;;5063760;28;20055;-70
2022/11/22 04:23:29;;;;;;;1.80;0.10;;;12.10;96.70;;;;;;5064036;28;20502;-70
2022/11/22 04:26:02;;;;;;;0.73;0.20;;;12.10;96.70;;;;;;5062398;28;20125;-70
2022/11/22 04:28:29;;;;;;;1.48;0.20;;;12.10;96.70;;;;;;5061844;28;20044;-70
2022/11/22 04:34:04;;;;;;;2.25;0.15;;;12.20;96.70;;;;;;5062776;28;20041;-71
2022/11/22 04:36:32;;;;;;;0.30;0.10;;;12.20;96.70;;;;;;5076622;28;20048;-70
2022/11/22 04:38:59;;;;;;;0.30;0.10;;;12.20;96.70;;;;;;5062683;28;21030;-70
2022/11/22 04:41:29;;;;;;;0.35;0.10;;;12.20;96.70;;;;;;5063960;28;20082;-70
2022/11/22 04:46:42;;;;;;;0.50;0.10;;;12.20;96.70;;;;;;5061459;28;20053;-70
2022/11/22 04:49:10;;;;;;;0.63;0.10;;;12.20;96.70;;;;;;5062146;28;20040;-70
2022/11/22 04:54:24;;;;;;;0.20;0.10;;;12.20;96.70;;;;;;5062275;28;20051;-70
2022/11/22 04:56:53;;;;;;;0.63;0.10;;;12.20;96.70;;;;;;5062969;28;20887;-70
2022/11/22 04:59:21;;;;;;;0.30;0.03;;;12.20;96.70;;;;;;5061276;28;20565;-70
2022/11/22 05:01:51;;;;;;;0.63;0.10;;;12.20;96.70;;;;;;5061421;28;20440;-70
2022/11/22 05:04:19;;;;;;;1.17;0.22;;;12.20;96.70;;;;;;5062622;28;20048;-70
2022/11/22 05:06:46;;;;;;;0.52;0.10;;;12.20;96.70;;;;;;5062236;28;20032;-70
2022/11/22 05:09:15;;;;;;;0.38;0.10;;;12.20;96.70;;;;;;5060686;28;20141;-70
2022/11/22 05:11:43;;;;;;;0.63;0.10;;;12.20;96.70;;;;;;5063346;28;20071;-70
2022/11/22 05:14:12;;;;;;;0.40;0.10;;;12.20;96.70;;;;;;5060894;28;20056;-70
2022/11/22 05:16:40;;;;;;;0.98;0.10;;;12.20;96.70;;;;;;5058517;28;20040;-70
2022/11/22 05:19:08;;;;;;;0.82;0.30;;;12.20;96.70;;;;;;5061597;28;20131;-71
2022/11/22 05:21:36;;;;;;;0.40;0.00;;;12.20;96.70;;;;;;5063498;28;20044;-70
2022/11/22 05:24:05;;;;;;;0.20;0.10;;;12.20;96.70;;;;;;5060829;28;20131;-70
2022/11/22 05:26:34;;;;;;;1.33;0.13;;;12.20;96.70;;;;;;5063210;28;20040;-70
2022/11/22 05:29:04;;;;;;;0.80;0.20;;;12.20;96.70;;;;;;5062549;28;20052;-70
2022/11/22 05:31:36;;;;;;;0.40;0.10;;;12.20;96.70;;;;;;5062850;28;20074;-70
2022/11/22 05:34:05;;;;;;;0.80;0.10;;;12.20;96.70;;;;;;5062141;28;20040;-70
2022/11/22 05:36:33;;;;;;;0.52;0.10;;;12.20;96.70;;;;;;5059935;28;20044;-70
2022/11/22 05:39:02;;;;;;;0.20;0.10;;;12.20;96.70;;;;;;5061827;28;20094;-70
2022/11/22 05:41:30;;;;;;;0.75;0.20;;;12.20;96.70;;;;;;5060654;28;20966;-70
2022/11/22 05:43:58;;;;;;;0.35;0.10;;;12.20;96.70;;;;;;5058646;28;20040;-70
2022/11/22 05:46:28;;;;;;;0.10;0.00;;;12.20;96.70;;;;;;5060006;28;20047;-70
2022/11/22 05:48:58;;;;;;;0.50;0.10;;;12.20;96.70;;;;;;5061846;28;20478;-70
2022/11/22 05:51:29;;;;;;;0.68;0.17;;;12.20;96.70;;;;;;5059367;28;20682;-70
2022/11/22 05:54:01;;;;;;;1.10;0.10;;;12.20;96.70;;;;;;5043676;28;20135;-70
2022/11/22 05:56:29;;;;;;;0.82;0.08;;;12.20;96.70;;;;;;5061315;28;20041;-70
2022/11/22 05:58:57;;;;;;;0.90;0.20;;;12.20;96.70;;;;;;5061987;28;20113;-70
2022/11/22 06:01:25;;;;;;;0.38;0.17;;;12.20;96.70;;;;;;5060528;28;20063;-70
2022/11/22 06:03:54;;;;;;;0.35;0.10;;;12.10;96.70;;;;;;5058981;28;20044;-71
2022/11/22 06:06:23;;;;;;;0.68;0.10;;;12.10;96.70;;;;;;5059808;28;20742;-70
2022/11/22 06:08:51;;;;;;;0.10;0.05;;;12.10;96.70;;;;;;5059712;28;20494;-71
2022/11/22 06:11:20;;;;;;;0.63;0.10;;;12.10;96.70;;;;;;5059512;28;20079;-70
2022/11/22 06:13:50;;;;;;;3.67;1.17;;;12.10;96.70;;;;;;5058647;28;20478;-70
2022/11/22 06:16:18;;;;;;;1.65;0.10;;;12.10;96.70;;;;;;5061232;28;20759;-71
2022/11/22 06:18:46;;;;;;;0.40;0.20;;;12.10;96.70;;;;;;5061989;28;20051;-70
2022/11/22 06:21:15;;;;;;;0.17;0.10;;;12.10;96.70;;;;;;5061025;28;20033;-70
2022/11/22 06:23:45;;;;;;;0.68;0.10;;;12.10;96.70;;;;;;5060767;28;20067;-71
2022/11/22 06:26:16;;;;;;;0.45;0.08;;;12.10;96.70;;;;;;5060396;28;20689;-70
2022/11/22 06:28:46;;;;;;;0.20;0.10;;;12.10;96.70;;;;;;5059880;28;20143;-70
2022/11/22 06:31:15;;;;;;;0.45;0.00;;;12.10;96.70;;;;;;5059086;28;20495;-71
2022/11/22 06:33:44;;;;;;;0.75;0.10;;;12.10;96.70;;;;;;5043869;28;20528;-70
2022/11/22 06:36:13;;;;;;;0.60;0.25;;;12.10;96.70;;;;;;5043359;28;20160;-70
2022/11/22 06:38:42;;;;;;;0.35;0.10;;;12.00;96.70;;;;;;5058303;28;20599;-70
2022/11/22 06:41:14;;;;;;;0.50;0.10;;;12.10;96.70;;;;;;5060636;28;20620;-70
2022/11/22 06:43:43;;;;;;;1.17;0.10;;;12.10;96.70;;;;;;5061991;28;20116;-68
2022/11/22 06:46:17;;;;;;;0.85;0.10;;;12.10;96.70;;;;;;5059877;28;20047;-68
2022/11/22 06:48:45;;;;;;;0.88;0.10;;;12.10;96.70;;;;;;5061089;28;20123;-68
2022/11/22 06:51:18;;;;;;;0.50;0.20;;;12.10;96.70;;;;;;5060834;28;20041;-68
2022/11/22 06:53:46;;;;;;;0.65;0.20;;;12.10;96.70;;;;;;5060165;28;20037;-70
2022/11/22 06:56:20;;;;;;;1.00;0.17;;;12.10;96.70;;;;;;5062564;28;20458;-70
2022/11/22 06:58:49;;;;;;;0.45;0.20;;;12.00;96.70;;;;;;5063311;28;20562;-70
2022/11/22 07:01:18;;;;;;;0.40;0.10;;;12.00;96.70;;;;;;5065553;28;20102;-69
2022/11/22 07:03:47;;;;;;;0.50;0.30;;;12.00;96.70;;;;;;5062379;28;20054;-70
2022/11/22 07:06:17;;;;;;;1.67;0.30;;;12.00;96.70;;;;;;5063756;28;20090;-71
2022/11/22 07:08:45;;;;;;;1.55;0.15;;;11.90;96.70;;;;;;5045921;28;20056;-70
2022/11/22 07:11:17;;;;;;;1.70;0.10;;;11.90;96.70;;;;;;5063924;28;20124;-70
2022/11/22 07:13:46;;;;;;;1.08;0.20;;;11.90;96.70;;;;;;5063386;28;20064;-70
2022/11/22 07:16:16;;;;;;;0.20;0.10;;;11.90;96.70;;;;;;5065061;28;20044;-71
2022/11/22 07:18:44;;;;;;;0.65;0.00;;;11.90;96.70;;;;;;5064839;28;20076;-70
2022/11/22 07:21:15;;;;;;;0.22;0.10;;;11.90;96.70;;;;;;5063648;28;20045;-70
2022/11/22 07:23:45;;;;;;;0.40;0.10;;;11.90;96.70;;;;;;5064415;28;20101;-70
2022/11/22 07:26:14;;;;;;;1.10;0.20;;;11.90;96.70;;;;;;5065435;28;20147;-70
2022/11/22 07:28:44;;;;;;;1.50;0.10;;;11.90;96.70;;;;;;5062074;28;20167;-70
2022/11/22 07:31:13;;;;;;;0.52;0.10;;;11.90;96.70;;;;;;5064841;28;20044;-70
2022/11/22 07:33:42;;;;;;;0.20;0.10;;;11.90;96.70;;;;;;5064289;28;20500;-70
2022/11/22 07:36:12;;;;;;;0.20;0.10;;;11.90;96.70;;;;;;5065026;28;20090;-71
2022/11/22 07:38:40;;;;;;;0.50;0.20;;;11.90;96.70;;;;;;5062478;28;20620;-71
2022/11/22 07:41:08;;;;;;;1.15;0.20;;;11.90;96.70;;;;;;5063674;28;20036;-70
2022/11/22 07:43:37;;;;;;;1.25;0.30;;;11.90;96.70;;;;;;5063258;28;20135;-70
2022/11/22 07:46:10;;;;;;;0.55;0.20;;;11.90;96.70;;;;;;5046584;28;20044;-70
2022/11/22 07:48:38;;;;;;;0.93;0.20;;;11.90;96.70;;;;;;5063990;28;20132;-70
2022/11/22 07:51:07;;;;;;;0.68;0.22;;;12.00;96.70;;;;;;5063702;28;20111;-68
2022/11/22 07:53:35;;;;;;;0.60;0.30;;;12.00;96.70;;;;;;5064556;28;20048;-68
2022/11/22 07:56:04;;;;;;;0.60;0.28;;;12.00;96.70;;;;;;5045767;28;20090;-69
2022/11/22 07:58:32;;;;;;;1.15;0.32;;;12.00;96.70;;;;;;5063980;28;20044;-69
2022/11/22 08:01:06;;;;;;;0.73;0.20;;;12.00;96.70;;;;;;5064031;28;20108;-69
2022/11/22 08:03:35;;;;;;;2.70;0.57;;;12.00;96.70;;;;;;5064516;28;20537;-69
2022/11/22 08:06:05;;;;;;;1.58;0.85;;;12.00;96.70;;;;;;5057929;28;20037;-69
2022/11/22 08:08:33;;;;;;;2.13;0.63;;;12.00;96.70;;;;;;5063258;28;20136;-69
2022/11/22 08:11:02;;;;;;;1.10;0.45;;;12.00;96.70;;;;;;5062139;28;20056;-69
2022/11/22 08:13:30;;;;;;;1.65;0.98;;;12.00;96.70;;;;;;5064180;28;20833;-69
2022/11/22 08:16:02;;;;;;;1.75;0.43;;;12.00;96.70;;;;;;5062182;28;20516;-69
2022/11/22 08:18:34;;;;;;;1.58;0.60;;;11.90;96.70;;;;;;5062675;28;20048;-69
2022/11/22 08:21:04;;;;;;;0.93;0.63;;;11.90;96.70;;;;;;5062984;28;20048;-69
2022/11/22 08:23:32;;;;;;;1.55;0.60;;;11.90;96.70;;;;;;5062906;28;20044;-69
2022/11/22 08:26:01;;;;;;;3.55;0.90;;;11.90;96.70;;;;;;5061383;28;20524;-70
2022/11/22 08:28:29;;;;;;;1.10;0.60;;;11.90;96.70;;;;;;5062615;28;20048;-70
2022/11/22 08:31:02;;;;;;;2.65;0.80;;;11.90;96.70;;;;;;5045385;28;20083;-70
2022/11/22 08:33:30;;;;;;;3.00;0.60;;;11.90;96.70;;;;;;5063687;28;20052;-70
2022/11/22 08:36:00;;;;;;;4.57;1.25;;;11.90;96.70;;;;;;5063707;28;20041;-69
2022/11/22 08:38:28;;;;;;;3.88;1.00;;;11.90;96.70;;;;;;5061739;28;20777;-69
2022/11/22 08:40:56;;;;;;;4.00;1.10;;;12.00;96.70;;;;;;5061320;28;20055;-69
2022/11/22 08:43:24;;;;;;;7.10;1.90;;;12.00;96.70;;;;;;5063811;28;20048;-69
2022/11/22 08:45:57;;;;;;;4.35;1.08;;;12.00;96.70;;;;;;5061711;28;20386;-70
2022/11/22 08:48:26;;;;;;;5.28;1.17;;;12.00;96.70;;;;;;5062170;28;20132;-70
2022/11/22 08:50:56;;;;;;;2.63;0.85;;;11.90;96.70;;;;;;5061899;28;20044;-70
2022/11/22 08:53:28;;;;;;;2.42;0.75;;;11.90;96.70;;;;;;5063292;28;20116;-70
2022/11/22 08:55:59;;;;;;;4.50;1.30;;;11.90;96.70;;;;;;5060737;28;20036;-70
2022/11/22 08:58:29;;;;;;;5.25;1.25;;;11.90;96.70;;;;;;5060676;28;20482;-70
2022/11/22 09:01:03;;;;;;;3.88;1.15;;;11.90;96.70;;;;;;5062350;28;20044;-70
2022/11/22 09:03:32;;;;;;;3.58;1.25;;;11.80;96.70;;;;;;5062611;28;21102;-70
2022/11/22 09:06:01;;;;;;;3.83;1.50;;;11.80;96.70;;;;;;5062798;28;20040;-70
2022/11/22 09:08:51;;;;;;;4.25;1.52;;;11.80;96.70;;;;;;5052498;28;20080;-70
2022/11/22 09:11:40;;;;;;;3.88;1.90;;;11.80;96.70;;;;;;5060466;28;20047;-70
2022/11/22 09:14:08;;;;;;;5.32;1.65;;;11.80;96.70;;;;;;5061204;28;20040;-69
2022/11/22 09:16:36;;;;;;;3.72;1.17;;;11.80;96.70;;;;;;5061783;28;20044;-69
2022/11/22 09:19:04;;;;;;;6.07;1.30;;;11.70;96.70;;;;;;5061954;28;20051;-69
2022/11/22 09:21:32;;;;;;;3.15;1.02;;;11.70;96.70;;;;;;5060413;28;20460;-69
2022/11/22 09:24:02;;;;;;;3.88;1.40;;;11.70;96.70;;;;;;5060389;28;20042;-69
2022/11/22 09:26:30;;;;;;;4.45;1.27;;;11.70;96.70;;;;;;5062864;28;20040;-70
2022/11/22 09:28:58;;;;;;;5.68;1.95;;;11.70;96.70;;;;;;5059486;28;20489;-69
2022/11/22 09:31:26;;;;;;;6.15;2.20;;;11.70;96.70;;;;;;5062712;28;20475;-69
2022/11/22 09:33:55;;;;;;;6.93;2.42;;;11.80;96.70;;;;;;5043525;28;20530;-70
2022/11/22 09:36:27;;;;;;;5.20;1.70;;;11.80;96.70;;;;;;5062129;28;20251;-69
2022/11/22 09:38:55;;;;;;;6.43;2.03;;;11.80;96.70;;;;;;5061622;28;20051;-69
2022/11/22 09:41:51;;;;;;;6.07;2.28;;;11.80;96.70;;;;;;5061151;28;20041;-70
2022/11/22 09:44:29;;;;;;;3.72;1.25;;;11.80;96.70;;;;;;5062180;28;20529;-70
2022/11/22 09:47:07;;;;;;;2.88;1.20;;;11.70;96.70;;;;;;5061169;28;20048;-69
2022/11/22 09:49:46;;;;;;;4.80;1.20;;;11.60;96.70;;;;;;5061307;28;20044;-69
2022/11/22 09:52:21;;;;;;;4.38;1.30;;;11.60;96.70;;;;;;5060171;28;20062;-69
2022/11/22 09:54:54;;;;;;;2.97;1.15;;;11.60;96.70;;;;;;5061430;28;20068;-69
2022/11/22 09:57:27;;;;;;;5.78;1.90;;;11.60;96.70;;;;;;5055983;28;20044;-69
2022/11/22 10:00:03;;;;;;;3.53;1.20;;;11.60;96.70;;;;;;5038932;28;20414;-69
2022/11/22 10:02:45;;;;;;;4.28;1.27;;;11.50;96.70;;;;;;5061765;28;20054;-70
2022/11/22 10:05:33;;;;;;;3.95;1.27;;;11.50;96.70;;;;;;5060851;28;20066;-72
2022/11/22 10:08:16;;;;;;;1.83;0.90;;;11.50;96.70;;;;;;5058718;28;20226;-69
2022/11/22 10:10:45;;;;;;;3.63;0.70;;;11.50;96.70;;;;;;5062333;28;20036;-69
2022/11/22 10:13:21;;;;;;;3.65;1.30;;;11.40;96.70;;;;;;5061496;28;20041;-69
2022/11/22 10:15:56;;;;;;;2.33;1.00;;;11.40;96.70;;;;;;5060827;28;20107;-69
2022/11/22 10:18:30;;;;;;;2.15;1.20;;;11.30;96.70;;;;;;5059218;28;20126;-69
2022/11/22 10:20:59;;;;;;;4.68;1.15;;;11.20;96.70;;;;;;5061597;28;20048;-69
2022/11/22 10:23:31;;;;;;;2.80;0.85;;;11.20;96.70;;;;;;5062062;28;20374;-69
2022/11/22 10:26:04;;;;;;;2.10;0.73;;;11.10;96.70;;;;;;5061512;28;20037;-69
2022/11/22 10:28:36;;;;;;;1.85;0.50;;;11.10;96.70;;;;;;5054945;28;20068;-70
2022/11/22 10:31:14;;;;;;;2.88;0.60;;;11.10;96.70;;;;;;5061044;28;20048;-69
2022/11/22 10:33:49;;;;;;;0.93;0.50;;;11.00;96.70;;;;;;5065143;28;20053;-69
2022/11/22 10:36:27;;;;;;;1.60;0.50;;;11.00;96.70;;;;;;5045945;28;20143;-69
2022/11/22 10:39:20;;;;;;;2.08;0.57;;;11.00;96.70;;;;;;5063921;28;20055;-69
2022/11/22 10:42:13;;;;;;;0.95;0.38;;;11.00;96.70;;;;;;5061307;28;20048;-69
2022/11/22 10:44:50;;;;;;;1.48;0.63;;;11.00;96.70;;;;;;5060418;28;20102;-69
2022/11/22 10:47:35;;;;;;;1.20;0.45;;;11.10;96.70;;;;;;5065403;28;20051;-69
2022/11/22 10:50:10;;;;;;;0.57;0.30;;;11.10;96.70;;;;;;5062547;28;20135;-69
2022/11/22 10:53:06;;;;;;;0.93;0.43;;;11.10;96.70;;;;;;5065888;28;20098;-70
2022/11/22 10:55:48;;;;;;;2.45;0.55;;;11.10;96.70;;;;;;5058267;28;20071;-69
2022/11/22 10:58:29;;;;;;;3.10;0.90;;;11.10;96.70;;;;;;5065223;28;20036;-69
2022/11/22 11:01:06;;;;;;;1.65;0.88;;;11.10;96.70;;;;;;5062300;28;20047;-69
2022/11/22 11:03:38;;;;;;;2.10;1.10;;;11.10;96.70;;;;;;5062542;28;20102;-69
2022/11/22 11:06:12;;;;;;;3.20;1.13;;;11.10;96.70;;;;;;5062692;28;20036;-69
2022/11/22 11:09:05;;;;;;;1.77;1.30;;;11.10;96.70;;;;;;5056296;28;20053;-69
2022/11/22 11:11:54;;;;;;;1.67;0.73;;;11.10;96.70;;;;;;5061604;28;20062;-69
2022/11/22 11:14:28;;;;;;;1.52;0.50;;;11.00;96.70;;;;;;5063139;28;20036;-69
2022/11/22 11:17:00;;;;;;;1.42;0.50;;;10.90;96.70;;;;;;5065011;28;20131;-69
2022/11/22 11:19:31;;;;;;;2.15;0.75;;;10.90;96.70;;;;;;5062641;28;20067;-69
2022/11/22 11:22:11;;;;;;;1.40;0.60;;;10.90;96.70;;;;;;5063732;28;20516;-69
2022/11/22 11:24:40;;;;;;;0.98;0.63;;;10.90;96.70;;;;;;5063528;28;20036;-69
2022/11/22 11:27:10;;;;;;;0.90;0.40;;;10.90;96.70;;;;;;5063293;28;20117;-69
2022/11/22 11:29:42;;;;;;;1.67;0.75;;;10.80;96.70;;;;;;5062402;28;20045;-69
2022/11/22 11:32:13;;;;;;;1.63;0.77;;;10.70;96.70;;;;;;5063162;28;20048;-69
2022/11/22 11:34:51;;;;;;;2.28;0.82;;;10.80;96.70;;;;;;5064769;28;20049;-69
2022/11/22 11:37:25;;;;;;;1.50;0.80;;;10.70;96.70;;;;;;5054928;28;20062;-69
2022/11/22 11:39:53;;;;;;;2.13;1.20;;;10.70;96.70;;;;;;5063856;28;20040;-71
2022/11/22 11:42:24;;;;;;;1.95;1.13;;;10.60;96.70;;;;;;5062151;28;20541;-69
2022/11/22 11:44:54;;;;;;;2.15;0.90;;;10.60;96.70;;;;;;5064309;28;20488;-69
2022/11/22 11:47:34;;;;;;;1.50;0.80;;;10.60;96.70;;;;;;5061904;28;20097;-69
2022/11/22 11:50:02;;;;;;;1.40;0.70;;;10.50;96.70;;;;;;5063601;28;20048;-69
2022/11/22 11:52:31;;;;;;;1.15;0.65;;;10.50;96.70;;;;;;5062841;28;20048;-69
2022/11/22 11:55:01;;;;;;;3.45;1.00;;;10.40;96.70;;;;;;5062518;28;20068;-69
2022/11/22 11:57:32;;;;;;;1.70;1.10;;;10.40;96.70;;;;;;5063360;28;20037;-69
2022/11/22 12:00:03;;;;;;;1.65;0.63;;;10.40;96.70;;;;;;5046633;28;20059;-69
2022/11/22 12:02:39;;;;;;;2.42;0.90;;;10.30;96.70;;;;;;5063281;28;20056;-69
2022/11/22 12:05:26;;;;;;;1.63;0.63;;;10.40;96.70;;;;;;5063014;28;20048;-68
2022/11/22 12:07:55;;;;;;;1.92;0.98;;;10.40;96.70;;;;;;5060208;28;20056;-68
2022/11/22 12:10:35;;;;;;;1.20;0.55;;;10.40;96.70;;;;;;5061180;28;20417;-69
2022/11/22 12:13:14;;;;;;;2.35;0.65;;;10.40;96.70;;;;;;5062051;28;20525;-69
2022/11/22 12:15:53;;;;;;;1.33;0.73;;;10.30;96.70;;;;;;5063435;28;20078;-69
2022/11/22 12:18:37;;;;;;;1.40;0.80;;;10.30;96.70;;;;;;5063358;28;20696;-69
2022/11/22 12:21:15;;;;;;;1.77;0.60;;;10.30;96.70;;;;;;5063437;28;20577;-69
2022/11/22 12:23:51;;;;;;;0.98;0.63;;;10.30;96.70;;;;;;5062938;28;20494;-69
2022/11/22 12:26:19;;;;;;;1.80;0.60;;;10.30;96.70;;;;;;5063595;28;20086;-69
2022/11/22 12:28:48;;;;;;;1.13;0.55;;;10.30;96.70;;;;;;5062214;28;20525;-69
2022/11/22 12:31:28;;;;;;;1.15;0.45;;;10.40;96.70;;;;;;5063200;28;20074;-69
2022/11/22 12:34:05;;;;;;;1.20;0.70;;;10.40;96.70;;;;;;5058203;28;20042;-69
2022/11/22 12:36:42;;;;;;;1.15;0.75;;;10.50;96.70;;;;;;5061546;28;20408;-68
2022/11/22 12:39:15;;;;;;;2.20;1.10;;;10.40;96.70;;;;;;5045947;28;20648;-68
2022/11/22 12:41:46;;;;;;;2.58;1.20;;;10.40;96.70;;;;;;5062675;28;20044;-69
2022/11/22 12:44:18;;;;;;;3.13;1.38;;;10.40;96.70;;;;;;5063760;28;20047;-69
2022/11/22 12:46:50;;;;;;;3.35;2.55;;;10.40;96.70;;;;;;5056561;28;20552;-69
2022/11/22 12:49:30;;;;;;;1.88;0.88;;;10.40;96.70;;;;;;5061569;28;20048;-68
2022/11/22 12:52:08;;;;;;;1.10;0.70;;;10.40;96.70;;;;;;5061472;28;20126;-69
2022/11/22 12:54:41;;;;;;;2.88;1.00;;;10.40;96.70;;;;;;5061273;28;20086;-68
2022/11/22 12:57:17;;;;;;;1.30;0.60;;;10.50;96.70;;;;;;5059423;28;20055;-69
2022/11/22 12:59:52;;;;;;;1.77;1.00;;;10.50;96.70;;;;;;5060736;28;20231;-68
2022/11/22 13:02:30;;;;;;;1.98;1.60;;;10.50;96.70;;;;;;5054191;28;20516;-68
2022/11/22 13:05:04;;;;;;;3.15;1.00;;;10.50;96.70;;;;;;5061034;28;20052;-68
2022/11/22 13:08:02;;;;;;;2.08;1.30;;;10.50;96.70;;;;;;5060905;28;20701;-68
2022/11/22 13:10:36;;;;;;;2.83;1.50;;;10.50;96.70;;;;;;5041417;28;20067;-68
2022/11/22 13:13:15;;;;;;;2.35;1.58;;;10.50;96.70;;;;;;5058462;28;20056;-68
2022/11/22 13:15:46;;;;;;;1.70;1.17;;;10.50;96.70;;;;;;5062541;28;20375;-69
2022/11/22 13:18:15;;;;;;;2.38;1.17;;;10.50;96.70;;;;;;5062241;28;20106;-68
2022/11/22 13:20:55;;;;;;;2.35;1.85;;;10.50;96.70;;;;;;5061335;28;20418;-68